Time;durP1;ratioP1;P1;durP2;ratioP2;P2;SDS_P1;SDS_P2;PMS_P1;PMS_P2;Temp;Humidity;BMP_temperature;BMP_pressure;BME280_temperature;BME280_humidity;BME280_pressure;Samples;Min_cycle;Max_cycle;Signal;HPM_P1;HPM_P2
2022/03/02 00:00:43;;;;;;;11.87;8.47;;;;;;;;;;6179275;23;20452;-50
2022/03/02 00:03:09;;;;;;;9.47;7.00;;;;;;;;;;6174869;23;20381;-50
2022/03/02 00:05:36;;;;;;;13.73;8.07;;;;;;;;;;6176909;23;20372;-48
2022/03/02 00:08:03;;;;;;;11.53;7.43;;;;;;;;;;6177777;23;20192;-48
2022/03/02 00:10:29;;;;;;;13.40;7.47;;;;;;;;;;6179075;23;20369;-51
2022/03/02 00:12:55;;;;;;;11.00;7.40;;;;;;;;;;6176428;23;20503;-49
2022/03/02 00:15:21;;;;;;;11.80;7.90;;;;;;;;;;6174210;23;20692;-50
2022/03/02 00:17:47;;;;;;;15.27;8.63;;;;;;;;;;6176257;23;20431;-50
2022/03/02 00:20:13;;;;;;;15.97;7.50;;;;;;;;;;6149358;23;20380;-49
2022/03/02 00:22:39;;;;;;;11.20;7.60;;;;;;;;;;6176526;23;20395;-50
2022/03/02 00:25:05;;;;;;;15.37;8.80;;;;;;;;;;6177915;23;20379;-53
2022/03/02 00:27:31;;;;;;;12.30;7.70;;;;;;;;;;6176415;23;20982;-47
2022/03/02 00:29:57;;;;;;;12.07;8.03;;;;;;;;;;6178684;23;20527;-50
2022/03/02 00:32:23;;;;;;;16.70;7.03;;;;;;;;;;6176001;23;20368;-50
2022/03/02 00:34:49;;;;;;;10.67;6.93;;;;;;;;;;6178891;23;20145;-50
2022/03/02 00:37:15;;;;;;;9.53;6.93;;;;;;;;;;6179015;23;20431;-48
2022/03/02 00:39:41;;;;;;;17.10;8.33;;;;;;;;;;6176347;23;20471;-51
2022/03/02 00:42:07;;;;;;;9.27;6.80;;;;;;;;;;6178205;23;20369;-49
2022/03/02 00:44:33;;;;;;;14.03;6.87;;;;;;;;;;6175863;23;20427;-50
2022/03/02 00:47:00;;;;;;;11.10;8.73;;;;;;;;;;6173885;23;20372;-51
2022/03/02 00:49:27;;;;;;;11.10;7.37;;;;;;;;;;6177062;23;20732;-48
2022/03/02 00:51:54;;;;;;;11.07;8.40;;;;;;;;;;6173327;23;20371;-48
2022/03/02 00:54:20;;;;;;;9.80;6.97;;;;;;;;;;6173660;23;20380;-48
2022/03/02 00:56:46;;;;;;;8.83;7.00;;;;;;;;;;6177755;23;20372;-49
2022/03/02 00:59:12;;;;;;;9.90;7.30;;;;;;;;;;6172428;23;20586;-50
2022/03/02 01:01:38;;;;;;;13.57;8.50;;;;;;;;;;6174931;23;20435;-50
2022/03/02 01:04:04;;;;;;;9.97;6.90;;;;;;;;;;6175276;23;20388;-50
2022/03/02 01:06:30;;;;;;;8.13;6.53;;;;;;;;;;6175789;23;20384;-49
2022/03/02 01:08:56;;;;;;;10.20;6.90;;;;;;;;;;6175106;23;20427;-48
2022/03/02 01:11:22;;;;;;;15.03;7.77;;;;;;;;;;6179007;23;20149;-50
2022/03/02 01:13:48;;;;;;;14.17;6.67;;;;;;;;;;6178641;23;20407;-50
2022/03/02 01:16:14;;;;;;;13.57;8.73;;;;;;;;;;6174255;23;20149;-48
2022/03/02 01:18:40;;;;;;;10.77;7.53;;;;;;;;;;6180556;23;20376;-51
2022/03/02 01:21:06;;;;;;;11.70;7.30;;;;;;;;;;6178767;23;20385;-48
2022/03/02 01:23:32;;;;;;;13.67;7.93;;;;;;;;;;6178631;23;20145;-50
2022/03/02 01:25:58;;;;;;;10.50;7.53;;;;;;;;;;6180452;23;20805;-49
2022/03/02 01:28:24;;;;;;;8.03;5.80;;;;;;;;;;6183997;23;20435;-48
2022/03/02 01:30:50;;;;;;;12.30;6.60;;;;;;;;;;6185485;23;20398;-48
2022/03/02 01:33:16;;;;;;;10.90;8.23;;;;;;;;;;6185705;23;20371;-49
2022/03/02 01:35:42;;;;;;;11.97;7.27;;;;;;;;;;6184828;23;20463;-49
2022/03/02 01:38:08;;;;;;;10.67;7.13;;;;;;;;;;6184765;23;20383;-49
2022/03/02 01:40:34;;;;;;;11.77;8.33;;;;;;;;;;6186196;23;20451;-48
2022/03/02 01:43:00;;;;;;;14.50;8.03;;;;;;;;;;6185427;23;20141;-49
2022/03/02 01:45:26;;;;;;;10.17;7.63;;;;;;;;;;6184062;23;21076;-49
2022/03/02 01:47:52;;;;;;;10.70;7.00;;;;;;;;;;6184009;23;20989;-49
2022/03/02 01:50:18;;;;;;;10.10;7.83;;;;;;;;;;6185921;23;20168;-50
2022/03/02 01:52:44;;;;;;;10.90;6.97;;;;;;;;;;6186109;23;20149;-49
2022/03/02 01:55:10;;;;;;;11.60;8.50;;;;;;;;;;6156392;23;20795;-49
2022/03/02 01:57:36;;;;;;;13.60;8.57;;;;;;;;;;6181687;23;20369;-49
2022/03/02 02:00:04;;;;;;;11.70;7.87;;;;;;;;;;6182312;23;20879;-51
2022/03/02 02:02:30;;;;;;;9.40;7.20;;;;;;;;;;6180373;23;20368;-50
2022/03/02 02:04:56;;;;;;;18.00;7.87;;;;;;;;;;6179109;23;20435;-50
2022/03/02 02:07:22;;;;;;;13.30;7.87;;;;;;;;;;6178066;23;20424;-50
2022/03/02 02:09:49;;;;;;;13.93;7.60;;;;;;;;;;6179744;23;20369;-50
2022/03/02 02:12:15;;;;;;;9.30;6.90;;;;;;;;;;6177931;23;20903;-50
2022/03/02 02:14:41;;;;;;;14.20;7.60;;;;;;;;;;6181790;23;20373;-48
2022/03/02 02:17:07;;;;;;;12.83;7.30;;;;;;;;;;6178665;23;20156;-49
2022/03/02 02:19:32;;;;;;;13.93;8.00;;;;;;;;;;6179489;23;20145;-49
2022/03/02 02:21:58;;;;;;;12.50;6.97;;;;;;;;;;6178373;23;20488;-48
2022/03/02 02:24:24;;;;;;;11.30;5.87;;;;;;;;;;6177689;23;20415;-50
2022/03/02 02:26:50;;;;;;;10.80;7.97;;;;;;;;;;6180185;23;20376;-49
2022/03/02 02:29:16;;;;;;;11.53;7.37;;;;;;;;;;6178434;23;20196;-50
2022/03/02 02:31:42;;;;;;;13.50;9.10;;;;;;;;;;6150503;23;20438;-50
2022/03/02 02:34:08;;;;;;;15.23;8.70;;;;;;;;;;6180952;23;20395;-50
2022/03/02 02:36:34;;;;;;;11.63;7.67;;;;;;;;;;6181260;23;20455;-50
2022/03/02 02:39:00;;;;;;;10.70;6.33;;;;;;;;;;6179490;23;20196;-50
2022/03/02 02:41:26;;;;;;;11.17;8.07;;;;;;;;;;6175829;23;20153;-49
2022/03/02 02:43:52;;;;;;;11.87;7.70;;;;;;;;;;6177605;23;20426;-49
2022/03/02 02:46:18;;;;;;;15.73;7.27;;;;;;;;;;6178596;23;20477;-48
2022/03/02 02:48:44;;;;;;;12.23;7.03;;;;;;;;;;6178891;23;20876;-49
2022/03/02 02:51:10;;;;;;;13.50;9.00;;;;;;;;;;6176522;23;20395;-50
2022/03/02 02:53:36;;;;;;;10.80;7.23;;;;;;;;;;6178901;23;20844;-50
2022/03/02 02:56:02;;;;;;;12.83;6.80;;;;;;;;;;6175199;23;20367;-50
2022/03/02 02:58:28;;;;;;;9.10;6.27;;;;;;;;;;6180129;23;20373;-49
2022/03/02 03:00:54;;;;;;;6.43;5.50;;;;;;;;;;6155346;23;20389;-49
2022/03/02 03:03:20;;;;;;;19.20;7.40;;;;;;;;;;6176567;23;20364;-50
2022/03/02 03:05:46;;;;;;;8.57;6.37;;;;;;;;;;6181425;23;20388;-49
2022/03/02 03:08:12;;;;;;;8.67;6.67;;;;;;;;;;6178659;23;20923;-49
2022/03/02 03:10:39;;;;;;;14.83;6.90;;;;;;;;;;6179685;23;20408;-48
2022/03/02 03:13:05;;;;;;;9.83;5.93;;;;;;;;;;6177678;23;20388;-48
2022/03/02 03:15:31;;;;;;;9.47;6.33;;;;;;;;;;6175529;23;20371;-50
2022/03/02 03:17:57;;;;;;;8.60;6.70;;;;;;;;;;6178332;23;20439;-49
2022/03/02 03:20:25;;;;;;;12.30;6.47;;;;;;;;;;6173523;23;20407;-48
2022/03/02 03:22:51;;;;;;;12.37;7.87;;;;;;;;;;6179406;23;20437;-50
2022/03/02 03:25:17;;;;;;;11.80;8.27;;;;;;;;;;6174451;23;20376;-48
2022/03/02 03:27:43;;;;;;;12.07;7.30;;;;;;;;;;6173900;23;20426;-49
2022/03/02 03:30:09;;;;;;;10.90;7.17;;;;;;;;;;6176794;23;20854;-48
2022/03/02 03:32:35;;;;;;;14.43;8.67;;;;;;;;;;6176465;23;20440;-48
2022/03/02 03:35:02;;;;;;;13.97;6.30;;;;;;;;;;6177382;23;20376;-47
2022/03/02 03:37:28;;;;;;;14.93;6.37;;;;;;;;;;6152309;23;20380;-48
2022/03/02 03:39:54;;;;;;;9.30;6.67;;;;;;;;;;6176757;23;20368;-48
2022/03/02 03:42:20;;;;;;;9.63;6.40;;;;;;;;;;6179806;23;20728;-49
2022/03/02 03:44:46;;;;;;;12.30;7.37;;;;;;;;;;6176937;23;20887;-49
2022/03/02 03:47:12;;;;;;;12.03;8.50;;;;;;;;;;6176154;23;20383;-50
2022/03/02 03:49:38;;;;;;;12.83;8.13;;;;;;;;;;6179188;23;20462;-48
2022/03/02 03:52:04;;;;;;;12.07;7.67;;;;;;;;;;6176642;23;20576;-49
2022/03/02 03:54:30;;;;;;;8.93;5.97;;;;;;;;;;6175058;23;20381;-50
2022/03/02 03:56:56;;;;;;;11.20;6.70;;;;;;;;;;6178233;23;20376;-49
2022/03/02 03:59:22;;;;;;;9.20;6.50;;;;;;;;;;6174848;23;20640;-49
2022/03/02 04:01:48;;;;;;;10.93;7.27;;;;;;;;;;6175312;23;20655;-47
2022/03/02 04:04:14;;;;;;;12.43;8.20;;;;;;;;;;6177179;23;20376;-50
2022/03/02 04:06:40;;;;;;;14.80;8.00;;;;;;;;;;6180051;23;20876;-49
2022/03/02 04:09:06;;;;;;;9.43;6.93;;;;;;;;;;6177408;23;20427;-50
2022/03/02 04:11:32;;;;;;;8.00;5.87;;;;;;;;;;6173810;23;20628;-47
2022/03/02 04:13:58;;;;;;;10.03;6.47;;;;;;;;;;6178066;23;20364;-48
2022/03/02 04:16:24;;;;;;;12.03;7.33;;;;;;;;;;6177224;23;20459;-49
2022/03/02 04:18:50;;;;;;;11.47;7.43;;;;;;;;;;6177692;23;20440;-48
2022/03/02 04:21:16;;;;;;;18.00;7.10;;;;;;;;;;6179164;23;20385;-48
2022/03/02 04:23:42;;;;;;;12.47;8.37;;;;;;;;;;6180302;23;20727;-49
2022/03/02 04:26:08;;;;;;;11.47;7.13;;;;;;;;;;6178598;23;20495;-49
2022/03/02 04:28:34;;;;;;;12.30;8.30;;;;;;;;;;6176477;23;20475;-49
2022/03/02 04:31:00;;;;;;;10.70;7.53;;;;;;;;;;6175743;23;20403;-49
2022/03/02 04:33:26;;;;;;;10.00;6.40;;;;;;;;;;6175205;23;21207;-50
2022/03/02 04:35:52;;;;;;;12.70;8.27;;;;;;;;;;6174752;23;20391;-50
2022/03/02 04:38:18;;;;;;;10.53;6.83;;;;;;;;;;6147596;23;20388;-50
2022/03/02 04:40:44;;;;;;;15.77;7.50;;;;;;;;;;6177874;23;20873;-49
2022/03/02 04:43:10;;;;;;;14.40;6.80;;;;;;;;;;6176998;23;20426;-49
2022/03/02 04:45:36;;;;;;;10.27;7.20;;;;;;;;;;6177889;23;20192;-49
2022/03/02 04:48:02;;;;;;;10.27;7.37;;;;;;;;;;6177571;23;20439;-50
2022/03/02 04:50:28;;;;;;;12.07;7.23;;;;;;;;;;6174541;23;20379;-50
2022/03/02 04:52:55;;;;;;;12.83;7.63;;;;;;;;;;6179510;23;20824;-50
2022/03/02 04:55:20;;;;;;;14.80;8.07;;;;;;;;;;6176015;23;20369;-49
2022/03/02 04:57:50;;;;;;;13.43;6.83;;;;;;;;;;6175044;23;20427;-49
2022/03/02 05:00:17;;;;;;;12.60;6.23;;;;;;;;;;6178166;23;20364;-50
2022/03/02 05:02:43;;;;;;;13.53;8.87;;;;;;;;;;6179692;23;20411;-49
2022/03/02 05:05:13;;;;;;;12.73;7.40;;;;;;;;;;6180257;23;20855;-50
2022/03/02 05:07:40;;;;;;;11.43;7.53;;;;;;;;;;6181244;23;20427;-50
2022/03/02 05:10:06;;;;;;;7.83;5.87;;;;;;;;;;6178770;23;20915;-49
2022/03/02 05:12:32;;;;;;;8.57;6.60;;;;;;;;;;6178918;23;21179;-49
2022/03/02 05:14:58;;;;;;;8.20;5.80;;;;;;;;;;6181719;23;20684;-51
2022/03/02 05:17:24;;;;;;;13.37;8.00;;;;;;;;;;6178644;23;20372;-49
2022/03/02 05:19:50;;;;;;;12.27;7.60;;;;;;;;;;6180023;23;20434;-49
2022/03/02 05:22:16;;;;;;;9.60;6.30;;;;;;;;;;6175733;23;20382;-48
2022/03/02 05:24:42;;;;;;;12.63;7.63;;;;;;;;;;6177562;23;20348;-49
2022/03/02 05:27:08;;;;;;;9.20;6.80;;;;;;;;;;6175805;23;20369;-50
2022/03/02 05:29:34;;;;;;;10.20;6.80;;;;;;;;;;6182213;23;20837;-51
2022/03/02 05:32:00;;;;;;;10.17;7.47;;;;;;;;;;6180953;23;20373;-50
2022/03/02 05:34:27;;;;;;;11.00;5.90;;;;;;;;;;6181873;23;20434;-49
2022/03/02 05:36:53;;;;;;;11.73;6.77;;;;;;;;;;6177689;23;20364;-50
2022/03/02 05:39:19;;;;;;;12.30;6.87;;;;;;;;;;6178762;23;20813;-50
2022/03/02 05:41:45;;;;;;;9.93;7.73;;;;;;;;;;6178914;23;20442;-50
2022/03/02 05:44:12;;;;;;;11.23;7.77;;;;;;;;;;6151544;23;20368;-50
2022/03/02 05:46:38;;;;;;;10.20;6.37;;;;;;;;;;6178913;23;20463;-49
2022/03/02 05:49:04;;;;;;;10.03;7.93;;;;;;;;;;6182721;23;20428;-50
2022/03/02 05:51:30;;;;;;;14.30;8.47;;;;;;;;;;6181776;23;20377;-50
2022/03/02 05:53:56;;;;;;;14.60;6.50;;;;;;;;;;6180719;23;20945;-50
2022/03/02 05:56:23;;;;;;;9.30;7.33;;;;;;;;;;6180354;23;20799;-50
2022/03/02 05:58:49;;;;;;;12.10;7.80;;;;;;;;;;6181216;23;20391;-50
2022/03/02 06:01:15;;;;;;;11.50;7.33;;;;;;;;;;6180717;23;20376;-51
2022/03/02 06:03:41;;;;;;;10.37;5.90;;;;;;;;;;6181214;23;20196;-51
2022/03/02 06:06:07;;;;;;;9.90;6.50;;;;;;;;;;6180365;23;20152;-49
2022/03/02 06:08:33;;;;;;;10.23;6.37;;;;;;;;;;6181111;23;20467;-48
2022/03/02 06:10:59;;;;;;;14.20;7.07;;;;;;;;;;6180911;23;20375;-49
2022/03/02 06:13:25;;;;;;;13.07;6.90;;;;;;;;;;6180191;23;20388;-49
2022/03/02 06:15:51;;;;;;;10.37;6.77;;;;;;;;;;6180892;23;20376;-48
2022/03/02 06:18:17;;;;;;;14.90;7.10;;;;;;;;;;6180579;23;20455;-49
2022/03/02 06:20:43;;;;;;;11.50;7.60;;;;;;;;;;6155952;23;21121;-49
2022/03/02 06:23:09;;;;;;;10.53;6.30;;;;;;;;;;6183640;23;20814;-49
2022/03/02 06:25:35;;;;;;;15.70;8.23;;;;;;;;;;6182026;23;20423;-49
2022/03/02 06:28:01;;;;;;;14.83;8.10;;;;;;;;;;6179379;23;20934;-49
2022/03/02 06:30:27;;;;;;;10.37;7.60;;;;;;;;;;6182119;23;20379;-49
2022/03/02 06:32:53;;;;;;;12.87;8.07;;;;;;;;;;6180345;23;20374;-49
2022/03/02 06:35:19;;;;;;;14.63;7.87;;;;;;;;;;6180173;23;20368;-50
2022/03/02 06:37:46;;;;;;;18.93;8.30;;;;;;;;;;6181966;23;20369;-49
2022/03/02 06:40:13;;;;;;;13.50;8.57;;;;;;;;;;6180050;23;20384;-49
2022/03/02 06:42:59;;;;;;;14.07;7.30;;;;;;;;;;6179166;23;20375;-49
2022/03/02 06:45:27;;;;;;;15.00;8.90;;;;;;;;;;6178529;23;20369;-49
2022/03/02 06:47:54;;;;;;;14.07;7.27;;;;;;;;;;6179547;23;20459;-49
2022/03/02 06:50:25;;;;;;;8.87;7.37;;;;;;;;;;6181756;23;20376;-49
2022/03/02 06:52:52;;;;;;;11.40;8.63;;;;;;;;;;6181268;23;20377;-50
2022/03/02 06:55:18;;;;;;;11.20;6.80;;;;;;;;;;6178007;23;20384;-49
2022/03/02 06:57:47;;;;;;;12.33;8.40;;;;;;;;;;6180067;23;20368;-49
2022/03/02 07:00:16;;;;;;;16.23;9.00;;;;;;;;;;6180631;23;20475;-49
2022/03/02 07:02:46;;;;;;;13.67;7.80;;;;;;;;;;6180628;23;20705;-49
2022/03/02 07:05:12;;;;;;;11.23;8.00;;;;;;;;;;6181693;23;20443;-48
2022/03/02 07:07:38;;;;;;;12.13;8.17;;;;;;;;;;6181522;23;20793;-49
2022/03/02 07:10:04;;;;;;;10.97;8.20;;;;;;;;;;6180581;23;20387;-50
2022/03/02 07:12:30;;;;;;;11.07;8.03;;;;;;;;;;6179404;23;20412;-49
2022/03/02 07:14:57;;;;;;;11.60;8.30;;;;;;;;;;6181317;23;20372;-49
2022/03/02 07:17:23;;;;;;;16.70;9.67;;;;;;;;;;6179839;23;20368;-49
2022/03/02 07:19:49;;;;;;;14.23;9.37;;;;;;;;;;6180757;23;20434;-50
2022/03/02 07:22:16;;;;;;;13.30;8.03;;;;;;;;;;6181957;23;20415;-50
2022/03/02 07:24:46;;;;;;;13.10;9.30;;;;;;;;;;6180159;23;20363;-50
2022/03/02 07:27:12;;;;;;;15.33;8.77;;;;;;;;;;6152720;23;20384;-50
2022/03/02 07:29:38;;;;;;;11.40;8.83;;;;;;;;;;6155367;23;20381;-50
2022/03/02 07:32:04;;;;;;;14.10;9.13;;;;;;;;;;6155156;23;20391;-49
2022/03/02 07:34:31;;;;;;;13.37;8.93;;;;;;;;;;6178596;23;20369;-49
2022/03/02 07:36:57;;;;;;;10.07;7.80;;;;;;;;;;6178847;23;20405;-50
2022/03/02 07:39:23;;;;;;;16.80;7.87;;;;;;;;;;6180549;23;20403;-50
2022/03/02 07:41:48;;;;;;;14.40;9.30;;;;;;;;;;6152925;23;20368;-49
2022/03/02 07:44:16;;;;;;;11.80;7.80;;;;;;;;;;6154118;23;20380;-50
2022/03/02 07:46:42;;;;;;;14.00;8.20;;;;;;;;;;6179147;23;20394;-50
2022/03/02 07:49:08;;;;;;;14.83;9.00;;;;;;;;;;6181567;23;20514;-50
2022/03/02 07:51:35;;;;;;;17.10;8.47;;;;;;;;;;6179712;23;20145;-49
2022/03/02 07:54:01;;;;;;;13.50;8.90;;;;;;;;;;6180173;23;20701;-51
2022/03/02 07:56:28;;;;;;;17.47;9.53;;;;;;;;;;6178971;23;21070;-50
2022/03/02 07:58:54;;;;;;;17.27;9.57;;;;;;;;;;6180020;23;20364;-50
2022/03/02 08:01:20;;;;;;;12.83;8.70;;;;;;;;;;6153539;23;20372;-50
2022/03/02 08:03:46;;;;;;;14.17;8.87;;;;;;;;;;6152922;23;20374;-48
2022/03/02 08:06:12;;;;;;;13.80;9.13;;;;;;;;;;6181560;23;20392;-49
2022/03/02 08:08:38;;;;;;;14.30;9.00;;;;;;;;;;6181467;23;20215;-50
2022/03/02 08:11:04;;;;;;;13.87;8.73;;;;;;;;;;6179854;23;20376;-49
2022/03/02 08:13:31;;;;;;;14.10;8.93;;;;;;;;;;6178621;23;20769;-50
2022/03/02 08:15:57;;;;;;;17.77;9.43;;;;;;;;;;6179646;23;20866;-50
2022/03/02 08:18:23;;;;;;;17.17;9.67;;;;;;;;;;6179370;23;20373;-50
2022/03/02 08:20:50;;;;;;;17.80;10.63;;;;;;;;;;6177153;23;20372;-49
2022/03/02 08:23:16;;;;;;;14.43;9.73;;;;;;;;;;6179473;23;20692;-49
2022/03/02 08:25:42;;;;;;;18.63;9.93;;;;;;;;;;6149965;23;20361;-50
2022/03/02 08:28:11;;;;;;;10.60;8.70;;;;;;;;;;6177679;23;20965;-49
2022/03/02 08:30:38;;;;;;;21.40;10.07;;;;;;;;;;6179175;23;20371;-52
2022/03/02 08:33:04;;;;;;;13.33;9.00;;;;;;;;;;6177152;23;20385;-49
2022/03/02 08:35:35;;;;;;;13.47;9.20;;;;;;;;;;6180436;23;20377;-49
2022/03/02 08:38:02;;;;;;;15.17;10.37;;;;;;;;;;6183210;23;20400;-50
2022/03/02 08:40:28;;;;;;;15.40;10.23;;;;;;;;;;6179171;23;20372;-49
2022/03/02 08:42:56;;;;;;;11.47;8.50;;;;;;;;;;6181975;23;20434;-49
2022/03/02 08:45:23;;;;;;;19.67;9.43;;;;;;;;;;6184004;23;20452;-49
2022/03/02 08:47:49;;;;;;;19.13;10.30;;;;;;;;;;6181529;23;21251;-50
2022/03/02 08:50:15;;;;;;;20.67;11.40;;;;;;;;;;6181845;23;20891;-50
2022/03/02 08:52:41;;;;;;;13.97;10.40;;;;;;;;;;6187891;23;20372;-49
2022/03/02 08:55:09;;;;;;;17.00;12.93;;;;;;;;;;6185445;23;20399;-50
2022/03/02 08:57:36;;;;;;;97.23;41.70;;;;;;;;;;6185432;23;20372;-50
2022/03/02 09:00:06;;;;;;;100.07;43.60;;;;;;;;;;6161437;23;20384;-50
2022/03/02 09:02:32;;;;;;;18.20;12.27;;;;;;;;;;6159002;23;20361;-50
2022/03/02 09:04:59;;;;;;;24.07;17.23;;;;;;;;;;6155996;23;20409;-50
2022/03/02 09:07:25;;;;;;;15.37;11.87;;;;;;;;;;6182609;23;20164;-50
2022/03/02 09:09:51;;;;;;;18.00;12.00;;;;;;;;;;6183185;23;20381;-50
2022/03/02 09:12:17;;;;;;;21.80;12.77;;;;;;;;;;6181107;23;20380;-49
2022/03/02 09:14:44;;;;;;;24.30;12.10;;;;;;;;;;6183789;23;20898;-48
2022/03/02 09:17:10;;;;;;;95.57;50.70;;;;;;;;;;6180928;23;20871;-48
2022/03/02 09:19:35;;;;;;;56.00;34.10;;;;;;;;;;6154201;23;20396;-49
2022/03/02 09:22:03;;;;;;;20.43;17.33;;;;;;;;;;6181167;23;20422;-49
2022/03/02 09:24:29;;;;;;;25.77;15.40;;;;;;;;;;6155725;23;20946;-49
2022/03/02 09:26:56;;;;;;;20.03;13.13;;;;;;;;;;6180258;23;20365;-50
2022/03/02 09:29:22;;;;;;;25.67;12.87;;;;;;;;;;6157035;23;20477;-50
2022/03/02 09:31:51;;;;;;;15.37;11.13;;;;;;;;;;6153068;23;20779;-52
2022/03/02 09:34:17;;;;;;;16.40;12.77;;;;;;;;;;6182513;23;20438;-48
2022/03/02 09:36:43;;;;;;;17.80;11.47;;;;;;;;;;6156234;23;20722;-49
2022/03/02 09:39:09;;;;;;;20.23;15.90;;;;;;;;;;6182525;23;20380;-51
2022/03/02 09:41:40;;;;;;;17.13;11.27;;;;;;;;;;6179160;23;20422;-52
2022/03/02 09:44:06;;;;;;;16.97;11.43;;;;;;;;;;6180885;23;20393;-50
2022/03/02 09:46:32;;;;;;;16.90;11.30;;;;;;;;;;6153237;23;20789;-50
2022/03/02 09:49:01;;;;;;;16.50;9.63;;;;;;;;;;6179814;23;20520;-54
2022/03/02 09:51:27;;;;;;;17.47;11.30;;;;;;;;;;6155414;23;20383;-49
2022/03/02 09:53:53;;;;;;;18.70;11.40;;;;;;;;;;6155987;23;20377;-49
2022/03/02 09:56:20;;;;;;;14.63;11.13;;;;;;;;;;6182186;23;21085;-49
2022/03/02 09:58:46;;;;;;;22.27;10.70;;;;;;;;;;6179413;23;20415;-49
2022/03/02 10:01:15;;;;;;;13.90;10.63;;;;;;;;;;6153230;23;20381;-49
2022/03/02 10:03:45;;;;;;;14.53;10.60;;;;;;;;;;6180322;23;20373;-50
2022/03/02 10:06:11;;;;;;;15.97;12.20;;;;;;;;;;6181080;23;20487;-50
2022/03/02 10:08:39;;;;;;;13.40;10.67;;;;;;;;;;6155682;23;20471;-49
2022/03/02 10:11:06;;;;;;;16.70;10.90;;;;;;;;;;6180840;23;20397;-49
2022/03/02 10:13:32;;;;;;;18.90;12.80;;;;;;;;;;6178422;23;20555;-50
2022/03/02 10:15:58;;;;;;;25.90;18.30;;;;;;;;;;6182527;23;20364;-50
2022/03/02 10:18:25;;;;;;;17.80;12.67;;;;;;;;;;6178052;23;20380;-51
2022/03/02 10:20:53;;;;;;;15.17;12.57;;;;;;;;;;6179940;23;20369;-51
2022/03/02 10:23:25;;;;;;;17.00;13.50;;;;;;;;;;6179796;23;20419;-50
2022/03/02 10:26:10;;;;;;;19.03;10.77;;;;;;;;;;6177626;23;20797;-51
2022/03/02 10:28:36;;;;;;;17.50;9.87;;;;;;;;;;6180473;23;20467;-52
2022/03/02 10:31:01;;;;;;;11.33;8.70;;;;;;;;;;6180025;23;20368;-50
2022/03/02 10:33:27;;;;;;;14.33;10.03;;;;;;;;;;6180702;23;20153;-49
2022/03/02 10:36:04;;;;;;;19.87;11.20;;;;;;;;;;6156424;23;20141;-49
2022/03/02 10:38:39;;;;;;;14.70;8.93;;;;;;;;;;6183776;23;20793;-49
2022/03/02 10:41:07;;;;;;;12.90;9.00;;;;;;;;;;6180954;23;20954;-49
2022/03/02 10:43:40;;;;;;;14.40;9.00;;;;;;;;;;6179779;23;20440;-48
2022/03/02 10:46:06;;;;;;;9.87;8.57;;;;;;;;;;6180949;23;20380;-48
2022/03/02 10:48:41;;;;;;;13.93;9.10;;;;;;;;;;6149748;23;20477;-49
2022/03/02 10:51:07;;;;;;;14.93;9.07;;;;;;;;;;6180743;23;20395;-48
2022/03/02 10:53:35;;;;;;;16.50;9.20;;;;;;;;;;6180764;23;20365;-49
2022/03/02 10:56:01;;;;;;;15.10;9.07;;;;;;;;;;6180940;23;20771;-48
2022/03/02 10:58:27;;;;;;;14.10;11.23;;;;;;;;;;6151830;23;20381;-50
2022/03/02 11:00:53;;;;;;;16.87;13.17;;;;;;;;;;6178877;23;20187;-49
2022/03/02 11:03:19;;;;;;;14.60;9.63;;;;;;;;;;6178023;23;20364;-48
2022/03/02 11:05:45;;;;;;;16.20;10.40;;;;;;;;;;6153015;23;20373;-48
2022/03/02 11:08:11;;;;;;;24.80;17.33;;;;;;;;;;6181321;23;20227;-50
2022/03/02 11:10:39;;;;;;;42.10;23.00;;;;;;;;;;6180696;23;20373;-49
2022/03/02 11:13:12;;;;;;;17.87;11.70;;;;;;;;;;6179856;23;20380;-49
2022/03/02 11:15:51;;;;;;;14.10;9.20;;;;;;;;;;6180063;23;20407;-49
2022/03/02 11:18:31;;;;;;;12.10;6.93;;;;;;;;;;6179068;23;20441;-49
2022/03/02 11:20:59;;;;;;;15.20;8.50;;;;;;;;;;6181061;23;20781;-49
2022/03/02 11:23:26;;;;;;;15.27;8.47;;;;;;;;;;6180866;23;20364;-49
2022/03/02 11:25:54;;;;;;;12.93;8.23;;;;;;;;;;6179940;23;20437;-49
2022/03/02 11:28:21;;;;;;;19.13;9.07;;;;;;;;;;6177909;23;20517;-50
2022/03/02 11:30:50;;;;;;;15.20;9.50;;;;;;;;;;6177618;23;20742;-49
2022/03/02 11:33:16;;;;;;;10.33;8.50;;;;;;;;;;6181561;23;20369;-49
2022/03/02 11:35:42;;;;;;;13.63;9.93;;;;;;;;;;6181159;23;20384;-48
2022/03/02 11:38:10;;;;;;;15.00;9.93;;;;;;;;;;6180850;23;20401;-49
2022/03/02 11:40:39;;;;;;;11.13;8.27;;;;;;;;;;6181057;23;20851;-49
2022/03/02 11:43:15;;;;;;;16.40;9.90;;;;;;;;;;6178036;23;20377;-50
2022/03/02 11:45:41;;;;;;;18.20;9.33;;;;;;;;;;6180887;23;20437;-49
2022/03/02 11:48:11;;;;;;;19.40;8.33;;;;;;;;;;6178224;23;20456;-49
2022/03/02 11:50:37;;;;;;;14.40;8.23;;;;;;;;;;6179258;23;20392;-49
2022/03/02 11:53:07;;;;;;;13.80;9.70;;;;;;;;;;6179229;23;20379;-49
2022/03/02 11:55:33;;;;;;;10.27;8.40;;;;;;;;;;6178515;23;20373;-49
2022/03/02 11:58:00;;;;;;;14.80;8.77;;;;;;;;;;6179833;23;20412;-49
2022/03/02 12:00:29;;;;;;;16.00;11.00;;;;;;;;;;6180580;23;20384;-49
2022/03/02 12:03:02;;;;;;;13.90;10.20;;;;;;;;;;6180235;23;20435;-49
2022/03/02 12:05:31;;;;;;;12.80;9.50;;;;;;;;;;6179626;23;20376;-49
2022/03/02 12:08:04;;;;;;;15.10;10.23;;;;;;;;;;6181274;23;21002;-49
2022/03/02 12:10:31;;;;;;;14.77;10.50;;;;;;;;;;6179383;23;20488;-50
2022/03/02 12:12:58;;;;;;;12.70;9.47;;;;;;;;;;6178709;23;20371;-49
2022/03/02 12:15:25;;;;;;;11.67;9.40;;;;;;;;;;6180096;23;20536;-50
2022/03/02 12:17:51;;;;;;;13.27;9.47;;;;;;;;;;6178913;23;20372;-49
2022/03/02 12:20:24;;;;;;;13.03;9.33;;;;;;;;;;6180642;23;20372;-50
2022/03/02 12:22:51;;;;;;;17.57;10.07;;;;;;;;;;6179587;23;20392;-49
2022/03/02 12:25:18;;;;;;;22.03;11.03;;;;;;;;;;6179723;23;20401;-49
2022/03/02 12:28:02;;;;;;;16.23;9.67;;;;;;;;;;6178349;23;20450;-49
2022/03/02 12:30:28;;;;;;;16.10;9.37;;;;;;;;;;6181221;23;20385;-50
2022/03/02 12:32:54;;;;;;;17.27;9.60;;;;;;;;;;6180179;23;20377;-49
2022/03/02 12:35:23;;;;;;;13.27;9.13;;;;;;;;;;6178911;23;20379;-49
2022/03/02 12:37:49;;;;;;;18.83;11.20;;;;;;;;;;6180380;23;20380;-50
2022/03/02 12:40:15;;;;;;;15.63;10.60;;;;;;;;;;6182259;23;20381;-50
2022/03/02 12:42:42;;;;;;;13.47;9.77;;;;;;;;;;6180134;23;20430;-50
2022/03/02 12:45:08;;;;;;;16.43;10.80;;;;;;;;;;6152595;23;20372;-50
2022/03/02 12:47:35;;;;;;;15.00;10.40;;;;;;;;;;6180303;23;20706;-48
2022/03/02 12:50:01;;;;;;;17.53;11.13;;;;;;;;;;6181041;23;20400;-49
2022/03/02 12:52:28;;;;;;;15.50;10.83;;;;;;;;;;6179818;23;20373;-49
2022/03/02 12:54:54;;;;;;;18.30;9.27;;;;;;;;;;6178218;23;20396;-50
2022/03/02 12:57:21;;;;;;;13.50;9.30;;;;;;;;;;6177419;23;20380;-48
2022/03/02 12:59:47;;;;;;;10.97;9.10;;;;;;;;;;6180314;23;20401;-48
2022/03/02 13:02:15;;;;;;;12.90;9.40;;;;;;;;;;6178118;23;20373;-48
2022/03/02 13:05:00;;;;;;;9.93;8.90;;;;;;;;;;6180334;23;20595;-49
2022/03/02 13:07:32;;;;;;;14.37;9.40;;;;;;;;;;6179459;23;20379;-48
2022/03/02 13:09:58;;;;;;;11.77;8.70;;;;;;;;;;6180510;23;20379;-48
2022/03/02 13:12:31;;;;;;;12.70;8.27;;;;;;;;;;6151146;23;20697;-49
2022/03/02 13:14:58;;;;;;;15.63;9.80;;;;;;;;;;6179934;23;20449;-49
2022/03/02 13:17:24;;;;;;;14.60;10.60;;;;;;;;;;6152771;23;20371;-49
2022/03/02 13:19:52;;;;;;;15.50;9.57;;;;;;;;;;6179427;23;20722;-49
2022/03/02 13:22:31;;;;;;;13.20;8.37;;;;;;;;;;6178734;23;20375;-50
2022/03/02 13:24:58;;;;;;;12.10;10.30;;;;;;;;;;6181160;23;20383;-49
2022/03/02 13:27:24;;;;;;;13.80;9.00;;;;;;;;;;6150999;23;20376;-50
2022/03/02 13:29:50;;;;;;;14.63;9.30;;;;;;;;;;6181627;23;20890;-50
2022/03/02 13:32:16;;;;;;;12.50;8.47;;;;;;;;;;6181891;23;20459;-49
2022/03/02 13:35:02;;;;;;;14.80;8.90;;;;;;;;;;6182358;23;21040;-50
2022/03/02 13:37:47;;;;;;;12.07;8.60;;;;;;;;;;6182085;23;20364;-50
2022/03/02 13:40:36;;;;;;;13.27;8.80;;;;;;;;;;6182400;23;20368;-47
2022/03/02 13:43:10;;;;;;;14.67;9.17;;;;;;;;;;6180592;23;20368;-48
2022/03/02 13:45:40;;;;;;;14.73;9.37;;;;;;;;;;6156041;23;20891;-48
2022/03/02 13:48:22;;;;;;;9.77;7.40;;;;;;;;;;6181100;23;20432;-49
2022/03/02 13:50:55;;;;;;;9.83;8.57;;;;;;;;;;6181344;23;20435;-48
2022/03/02 13:53:34;;;;;;;13.90;8.07;;;;;;;;;;6180979;23;20376;-49
2022/03/02 13:56:08;;;;;;;14.60;9.17;;;;;;;;;;6180889;23;20490;-49
2022/03/02 13:58:34;;;;;;;13.53;8.80;;;;;;;;;;6180404;23;20373;-49
2022/03/02 14:01:14;;;;;;;10.87;8.13;;;;;;;;;;6181650;23;20427;-50
2022/03/02 14:03:43;;;;;;;9.23;7.70;;;;;;;;;;6181543;23;20411;-47
2022/03/02 14:06:09;;;;;;;10.83;8.30;;;;;;;;;;6182595;23;20369;-50
2022/03/02 14:08:45;;;;;;;12.80;7.83;;;;;;;;;;6181497;23;20467;-50
2022/03/02 14:11:26;;;;;;;13.23;8.33;;;;;;;;;;6155745;23;20380;-50
2022/03/02 14:13:52;;;;;;;9.07;7.27;;;;;;;;;;6179295;23;20396;-49
2022/03/02 14:16:18;;;;;;;12.20;7.23;;;;;;;;;;6155237;23;20454;-49
2022/03/02 14:18:46;;;;;;;9.83;7.80;;;;;;;;;;6183004;23;20380;-49
2022/03/02 14:21:12;;;;;;;11.43;7.40;;;;;;;;;;6182197;23;20689;-49
2022/03/02 14:23:46;;;;;;;9.30;6.93;;;;;;;;;;6155051;23;20388;-49
2022/03/02 14:26:11;;;;;;;9.57;7.87;;;;;;;;;;6178724;23;20384;-50
2022/03/02 14:28:43;;;;;;;11.73;7.80;;;;;;;;;;6177915;23;20739;-49